Decoded Metar for EVRA (RIGA AIRPORT in LATVIA) (IATA:N/A) | Meteo·Mobile Aviation Weather
aviador You're here:

EVRA Decoded Metar

RIGA AIRPORT in LATVIA
Report Time2019-06-17 04:20:00
UTC Time2019-06-17 04:35:40
Flight Rules mvfr MVFR
Wind050° at 03 kt
W.Decomp.*RWY 36: 2.2 kt HW 2.0 kt RCW
Visibility9000 m
Phenomena:Light Rain
Clouds:Few 006 Hf
Broken 024 Hf
Overcast 034 Hf
Expected CloudBase > 400 ft AGL from Temp-Dew spread
Ceiling2,400 ft
Temp17°C (ISA +2)
Dew Point16°C (94% RH)
QNH1014 hPa
Density Alt482 ft
Elevation33 ft
Report Wrong Elevation
Raw Report
EVRA 170420Z 05003KT 9000 -RA FEW006 BKN024 OVC034 17/16 Q1014
NOSIG=

Extra information for EVRA:More info

Metar Taf Metar & Taf Last 4 Metars F.Rules Stats Wind Profile Meteogram Temp Stats Airport Information Weather charts Add Link Nearby VenuesMetar ALERT Operation Metar Decoded Social comments